createdAt,value
2018-03-04T00:00:07.621Z,75.10
2018-03-04T00:02:35.074Z,75.50
2018-03-04T00:05:02.538Z,75.40
2018-03-04T00:07:29.992Z,75.30
2018-03-04T00:09:57.450Z,75.50
2018-03-04T00:12:24.930Z,75.70
2018-03-04T00:14:53.153Z,75.00
2018-03-04T00:17:20.618Z,75.80
2018-03-04T00:19:48.069Z,75.20
2018-03-04T00:22:15.539Z,93.30
2018-03-04T00:24:42.993Z,75.00
2018-03-04T00:27:10.465Z,74.90
2018-03-04T00:29:38.329Z,74.80
2018-03-04T00:32:06.190Z,74.10
2018-03-04T00:34:34.149Z,75.50
2018-03-04T00:37:01.602Z,75.80
2018-03-04T00:39:29.129Z,76.10
2018-03-04T00:41:56.602Z,76.80
2018-03-04T00:44:24.070Z,76.70
2018-03-04T00:46:51.520Z,76.50
2018-03-04T00:49:18.994Z,75.50
2018-03-04T00:51:46.441Z,76.20
2018-03-04T00:54:13.898Z,76.30
2018-03-04T00:56:41.352Z,76.50
2018-03-04T00:59:08.829Z,76.90
2018-03-04T01:01:36.298Z,76.40
2018-03-04T01:04:03.765Z,76.40
2018-03-04T01:06:31.998Z,77.30
2018-03-04T01:08:59.450Z,77.30
2018-03-04T01:11:26.900Z,77.30
2018-03-04T01:13:54.366Z,77.30
2018-03-04T01:16:21.818Z,77.30
2018-03-04T01:18:49.270Z,77.30
2018-03-04T01:21:16.744Z,83.30
2018-03-04T01:23:44.197Z,82.20
2018-03-04T01:26:11.666Z,92.90
2018-03-04T01:28:39.142Z,94.20
2018-03-04T01:31:06.613Z,89.90
2018-03-04T01:33:34.832Z,75.80
2018-03-04T01:36:02.294Z,75.80
2018-03-04T01:38:29.813Z,75.50
2018-03-04T01:40:57.265Z,75.60
2018-03-04T01:43:25.493Z,75.70
2018-03-04T01:45:52.960Z,75.60
2018-03-04T01:48:20.414Z,75.70
2018-03-04T01:50:47.868Z,76.10
2018-03-04T01:53:15.360Z,76.50
2018-03-04T01:55:43.774Z,77.30
2018-03-04T01:58:11.223Z,77.10
2018-03-04T02:00:38.673Z,77.50
2018-03-04T02:03:06.143Z,76.60
2018-03-04T02:05:33.599Z,76.80
2018-03-04T02:08:01.052Z,77.60
2018-03-04T02:10:28.642Z,77.80
2018-03-04T02:12:55.985Z,77.80
2018-03-04T02:15:24.217Z,77.30
2018-03-04T02:17:52.435Z,77.40
2018-03-04T02:20:19.910Z,76.50
2018-03-04T02:22:47.359Z,76.50
2018-03-04T02:25:14.828Z,99.90
2018-03-04T02:27:42.281Z,77.20
2018-03-04T02:30:09.746Z,84.80
2018-03-04T02:32:37.597Z,77.50
2018-03-04T02:35:05.059Z,78.30
2018-03-04T02:37:32.529Z,78.60
2018-03-04T02:39:59.980Z,79.10
2018-03-04T02:42:27.689Z,79.40
2018-03-04T02:44:55.142Z,79.80
2018-03-04T02:47:22.595Z,80.40
2018-03-04T02:49:50.058Z,81.10
2018-03-04T02:52:17.514Z,81.40
2018-03-04T02:54:44.982Z,81.40
2018-03-04T02:57:12.428Z,81.90
2018-03-04T02:59:39.877Z,82.10
2018-03-04T03:02:07.461Z,83.10
2018-03-04T03:04:34.919Z,83.70
2018-03-04T03:07:02.370Z,83.90
2018-03-04T03:09:29.829Z,83.60
2018-03-04T03:11:57.306Z,83.50
2018-03-04T03:14:24.774Z,83.10
2018-03-04T03:16:52.230Z,83.70
2018-03-04T03:19:19.707Z,83.20
2018-03-04T03:21:47.158Z,83.30
2018-03-04T03:24:14.621Z,99.90
2018-03-04T03:26:42.084Z,81.40
2018-03-04T03:29:10.300Z,81.40
2018-03-04T03:31:37.763Z,80.60
2018-03-04T03:34:05.995Z,81.10
2018-03-04T03:36:34.224Z,80.90
2018-03-04T03:39:01.687Z,80.70
2018-03-04T03:41:29.145Z,81.10
2018-03-04T03:43:56.605Z,80.80
2018-03-04T03:46:24.065Z,79.80
2018-03-04T03:48:51.521Z,80.50
2018-03-04T03:51:18.977Z,80.30
2018-03-04T03:53:46.437Z,80.20
2018-03-04T03:56:13.919Z,80.10
2018-03-04T03:58:42.142Z,79.70
2018-03-04T04:01:09.607Z,79.60
2018-03-04T04:03:37.073Z,79.70
2018-03-04T04:06:04.855Z,79.10
2018-03-04T04:08:32.322Z,79.30
2018-03-04T04:10:59.785Z,77.90
2018-03-04T04:13:28.008Z,78.40
2018-03-04T04:15:55.461Z,78.10
2018-03-04T04:18:22.914Z,77.60
2018-03-04T04:20:50.364Z,77.00
2018-03-04T04:23:17.817Z,76.50
2018-03-04T04:25:45.279Z,76.90
2018-03-04T04:28:12.733Z,97.70
2018-03-04T04:30:40.195Z,95.40
2018-03-04T04:33:07.650Z,90.50
2018-03-04T04:35:35.102Z,77.30
2018-03-04T04:38:02.581Z,78.00
2018-03-04T04:40:30.028Z,77.70
2018-03-04T04:42:57.502Z,77.80
2018-03-04T04:45:24.956Z,77.60
2018-03-04T04:47:52.421Z,77.70
2018-03-04T04:50:19.882Z,77.60
2018-03-04T04:52:47.353Z,77.10
2018-03-04T04:55:14.834Z,75.70
2018-03-04T04:57:43.051Z,75.80
2018-03-04T05:00:10.505Z,75.00
2018-03-04T05:02:37.974Z,75.70
2018-03-04T05:05:05.436Z,75.90
2018-03-04T05:07:33.351Z,76.70
2018-03-04T05:10:00.843Z,75.90
2018-03-04T05:12:28.561Z,75.00
2018-03-04T05:14:56.778Z,76.80
2018-03-04T05:17:24.242Z,76.20
2018-03-04T05:19:51.704Z,76.40
2018-03-04T05:22:19.165Z,77.00
2018-03-04T05:24:46.638Z,75.20
2018-03-04T05:27:14.094Z,74.70
2018-03-04T05:29:41.549Z,74.80
2018-03-04T05:32:08.996Z,74.60
2018-03-04T05:34:36.453Z,96.70
2018-03-04T05:37:04.666Z,74.70
2018-03-04T05:39:32.897Z,75.60
2018-03-04T05:42:00.360Z,75.50
2018-03-04T05:44:27.817Z,75.00
2018-03-04T05:46:56.136Z,75.70
2018-03-04T05:49:24.349Z,76.30
2018-03-04T05:51:51.793Z,76.10
2018-03-04T05:54:19.268Z,75.50
2018-03-04T05:56:46.709Z,76.00
2018-03-04T05:59:14.157Z,75.40
2018-03-04T06:01:41.619Z,75.40
2018-03-04T06:04:09.077Z,75.20
2018-03-04T06:06:36.533Z,75.40
2018-03-04T06:09:03.983Z,75.60
2018-03-04T06:11:31.439Z,75.10
2018-03-04T06:13:58.890Z,75.20
2018-03-04T06:16:27.114Z,76.10
2018-03-04T06:18:54.566Z,76.10
2018-03-04T06:21:22.025Z,75.60
2018-03-04T06:23:49.469Z,76.20
2018-03-04T06:26:16.921Z,75.40
2018-03-04T06:28:44.381Z,75.60
2018-03-04T06:31:11.852Z,75.20
2018-03-04T06:33:39.317Z,75.10
2018-03-04T06:36:06.773Z,89.80
2018-03-04T06:38:34.235Z,76.20
2018-03-04T06:41:01.689Z,76.20
2018-03-04T06:43:29.912Z,76.60
2018-03-04T06:45:57.361Z,77.20
2018-03-04T06:48:25.590Z,76.70
2018-03-04T06:50:53.039Z,76.60
2018-03-04T06:53:20.501Z,76.50
2018-03-04T06:55:47.959Z,76.60
2018-03-04T06:58:15.412Z,76.60
2018-03-04T07:00:42.861Z,76.70
2018-03-04T07:03:11.092Z,77.40
2018-03-04T07:05:38.536Z,77.40
2018-03-04T07:08:06.754Z,77.30
2018-03-04T07:10:34.204Z,77.30
2018-03-04T07:13:01.672Z,77.30
2018-03-04T07:15:29.130Z,77.40
2018-03-04T07:17:56.587Z,78.10
2018-03-04T07:20:24.058Z,78.40
2018-03-04T07:22:51.522Z,78.90
2018-03-04T07:25:18.984Z,79.20
2018-03-04T07:27:46.448Z,81.10
2018-03-04T07:30:13.918Z,80.70
2018-03-04T07:32:41.360Z,80.90
2018-03-04T07:35:08.846Z,99.90
2018-03-04T07:37:37.066Z,79.50
2018-03-04T07:40:04.525Z,99.90
2018-03-04T07:42:31.979Z,79.00
2018-03-04T07:44:59.434Z,76.20
2018-03-04T07:47:26.881Z,73.40
2018-03-04T07:49:54.342Z,71.60
2018-03-04T07:52:21.812Z,71.20
2018-03-04T07:54:49.273Z,71.50
2018-03-04T07:57:16.753Z,70.40
2018-03-04T07:59:44.208Z,69.40
2018-03-04T08:02:12.222Z,67.50
2018-03-04T08:04:39.745Z,65.50
2018-03-04T08:07:08.297Z,64.60
2018-03-04T08:09:35.808Z,63.90
2018-03-04T08:12:04.022Z,62.60
2018-03-04T08:14:31.845Z,62.40
2018-03-04T08:16:59.634Z,60.20
2018-03-04T08:19:27.094Z,59.60
2018-03-04T08:21:54.546Z,58.30
2018-03-04T08:27:30.743Z,57.10
2018-03-04T08:29:58.196Z,56.10
2018-03-04T08:32:25.669Z,56.10
2018-03-04T08:34:53.124Z,56.20
2018-03-04T08:37:20.577Z,54.90
2018-03-04T08:39:48.057Z,54.50
2018-03-04T08:42:15.506Z,53.20
2018-03-04T08:44:42.970Z,59.20
2018-03-04T08:47:10.417Z,52.50
2018-03-04T08:49:38.351Z,51.60
2018-03-04T08:52:06.394Z,51.30
2018-03-04T08:54:34.627Z,50.70
2018-03-04T08:57:02.871Z,50.60
2018-03-04T08:59:30.308Z,51.20
2018-03-04T09:01:57.757Z,51.80
2018-03-04T09:04:26.039Z,52.60
2018-03-04T09:06:53.609Z,52.60
2018-03-04T09:09:21.092Z,53.40
2018-03-04T09:11:48.599Z,53.20
2018-03-04T09:14:17.159Z,49.40
2018-03-04T09:16:44.611Z,49.80
2018-03-04T09:19:12.060Z,50.20
2018-03-04T09:21:39.515Z,51.20
2018-03-04T09:24:06.948Z,50.40
2018-03-04T09:26:34.401Z,49.50
2018-03-04T09:29:01.854Z,50.30
2018-03-04T09:31:29.304Z,48.50
2018-03-04T09:33:56.753Z,48.80
2018-03-04T09:36:24.209Z,46.70
2018-03-04T09:38:51.662Z,46.10
2018-03-04T09:41:19.143Z,46.60
2018-03-04T09:43:46.589Z,46.50
2018-03-04T09:46:14.038Z,48.40
2018-03-04T09:48:41.682Z,56.00
2018-03-04T09:51:09.906Z,43.50
2018-03-04T09:53:38.134Z,41.20
2018-03-04T09:56:06.164Z,42.00
2018-03-04T09:58:33.795Z,42.40
2018-03-04T10:01:01.260Z,42.40
2018-03-04T10:03:28.704Z,41.50
2018-03-04T10:05:56.955Z,42.60
2018-03-04T10:08:24.421Z,42.60
2018-03-04T10:10:51.891Z,41.70
2018-03-04T10:13:19.373Z,42.40
2018-03-04T10:15:46.857Z,41.60
2018-03-04T10:18:14.301Z,40.40
2018-03-04T10:20:41.765Z,42.40
2018-03-04T10:23:10.226Z,41.50
2018-03-04T10:25:37.698Z,41.30
2018-03-04T10:28:05.155Z,40.30
2018-03-04T10:30:32.662Z,40.10
2018-03-04T10:33:00.891Z,41.70
2018-03-04T10:35:28.675Z,40.90
2018-03-04T10:37:56.911Z,39.80
2018-03-04T10:40:24.636Z,39.70
2018-03-04T10:42:52.110Z,39.80
2018-03-04T10:45:19.619Z,38.10
2018-03-04T10:47:48.584Z,46.40
2018-03-04T10:50:16.191Z,41.10
2018-03-04T10:52:44.415Z,39.70
2018-03-04T10:55:11.875Z,40.10
2018-03-04T10:57:39.378Z,48.00
2018-03-04T11:00:06.845Z,39.60
2018-03-04T11:02:38.378Z,39.70
2018-03-04T11:05:06.648Z,40.20
2018-03-04T11:07:34.093Z,40.10
2018-03-04T11:10:01.558Z,40.40
2018-03-04T11:12:29.260Z,39.10
2018-03-04T11:14:56.710Z,40.30
2018-03-04T11:17:24.166Z,39.00
2018-03-04T11:19:51.617Z,39.80
2018-03-04T11:22:19.066Z,39.50
2018-03-04T11:24:46.909Z,39.50
2018-03-04T11:27:14.365Z,40.00
2018-03-04T11:29:41.822Z,40.70
2018-03-04T11:32:09.324Z,40.60
2018-03-04T11:34:36.782Z,39.90
2018-03-04T11:37:04.990Z,41.40
2018-03-04T11:39:32.493Z,41.30
2018-03-04T11:42:00.706Z,41.30
2018-03-04T11:44:28.162Z,41.10
2018-03-04T11:46:55.608Z,42.00
2018-03-04T11:49:23.063Z,42.80
2018-03-04T11:51:50.568Z,43.50
2018-03-04T11:54:18.268Z,42.90
2018-03-04T11:56:46.120Z,41.70
2018-03-04T11:59:13.681Z,46.80
2018-03-04T12:01:41.949Z,41.50
2018-03-04T12:04:10.253Z,42.30
2018-03-04T12:06:37.993Z,42.30
2018-03-04T12:09:05.474Z,42.70
2018-03-04T12:11:32.937Z,41.10
2018-03-04T12:14:00.490Z,41.60
2018-03-04T12:16:27.954Z,41.20
2018-03-04T12:18:55.564Z,42.20
2018-03-04T12:21:23.012Z,41.20
2018-03-04T12:23:50.522Z,41.40
2018-03-04T12:26:17.987Z,41.00
2018-03-04T12:28:45.574Z,41.20
2018-03-04T12:31:13.025Z,40.80
2018-03-04T12:33:40.483Z,41.10
2018-03-04T12:36:07.962Z,42.10
2018-03-04T12:38:36.363Z,42.40
2018-03-04T12:41:04.584Z,41.90
2018-03-04T12:43:32.054Z,41.90
2018-03-04T12:45:59.551Z,42.30
2018-03-04T12:48:27.775Z,42.40
2018-03-04T12:50:55.227Z,46.90
2018-03-04T12:53:22.700Z,46.50
2018-03-04T12:55:50.551Z,42.00
2018-03-04T12:58:18.017Z,46.80
2018-03-04T13:00:45.870Z,42.90
2018-03-04T13:03:13.346Z,43.30
2018-03-04T13:05:40.819Z,42.80
2018-03-04T13:08:08.291Z,43.40
2018-03-04T13:10:35.747Z,43.30
2018-03-04T13:13:03.268Z,43.80
2018-03-04T13:15:30.714Z,44.00
2018-03-04T13:17:58.179Z,43.70
2018-03-04T13:20:25.686Z,43.70
2018-03-04T13:22:54.032Z,44.50
2018-03-04T13:25:21.479Z,44.40
2018-03-04T13:27:49.050Z,44.50
2018-03-04T13:30:16.492Z,44.90
2018-03-04T13:32:43.946Z,45.60
2018-03-04T13:35:11.637Z,45.00
2018-03-04T13:37:39.867Z,45.70
2018-03-04T13:40:07.326Z,45.60
2018-03-04T13:42:34.786Z,45.90
2018-03-04T13:45:02.248Z,49.70
2018-03-04T13:47:29.804Z,51.40
2018-03-04T13:49:57.261Z,46.30
2018-03-04T13:52:24.741Z,46.10
2018-03-04T13:54:52.293Z,53.20
2018-03-04T13:57:20.154Z,46.20
2018-03-04T13:59:47.605Z,46.60
2018-03-04T14:02:15.069Z,47.10
2018-03-04T14:04:42.756Z,47.40
2018-03-04T14:07:10.203Z,47.30
2018-03-04T14:09:37.665Z,47.60
2018-03-04T14:12:05.114Z,47.90
2018-03-04T14:14:33.244Z,47.80
2018-03-04T14:17:01.281Z,48.00
2018-03-04T14:19:29.516Z,48.80
2018-03-04T14:21:56.970Z,49.30
2018-03-04T14:24:24.473Z,49.00
2018-03-04T14:26:51.963Z,48.90
2018-03-04T14:29:19.410Z,48.80
2018-03-04T14:31:47.221Z,48.90
2018-03-04T14:34:14.708Z,48.20
2018-03-04T14:36:43.865Z,48.60
2018-03-04T14:39:11.385Z,48.50
2018-03-04T14:41:38.843Z,48.30
2018-03-04T14:44:06.432Z,48.30
2018-03-04T14:46:34.721Z,48.00
2018-03-04T14:49:02.197Z,47.50
2018-03-04T14:51:29.679Z,52.90
2018-03-04T14:53:57.905Z,47.60
2018-03-04T14:56:25.382Z,49.60
2018-03-04T14:58:52.839Z,47.40
2018-03-04T15:01:20.287Z,47.90
2018-03-04T15:03:47.746Z,47.90
2018-03-04T15:06:15.206Z,48.10
2018-03-04T15:08:42.666Z,47.80
2018-03-04T15:11:10.205Z,48.20
2018-03-04T15:13:37.776Z,46.80
2018-03-04T15:16:05.243Z,47.30
2018-03-04T15:18:32.703Z,46.70
2018-03-04T15:21:00.182Z,46.80
2018-03-04T15:23:28.419Z,46.50
2018-03-04T15:25:56.253Z,46.40
2018-03-04T15:28:25.420Z,46.30
2018-03-04T15:30:52.856Z,46.30
2018-03-04T15:33:20.308Z,46.40
2018-03-04T15:35:47.757Z,46.10
2018-03-04T15:38:15.257Z,46.30
2018-03-04T15:40:42.782Z,46.40
2018-03-04T15:43:10.295Z,46.10
2018-03-04T15:45:37.750Z,46.20
2018-03-04T15:48:05.734Z,52.10
2018-03-04T15:50:33.432Z,49.70
2018-03-04T15:53:00.901Z,46.30
2018-03-04T15:55:28.741Z,46.50
2018-03-04T15:57:56.340Z,47.00
2018-03-04T16:00:24.206Z,47.20
2018-03-04T16:02:52.429Z,47.60
2018-03-04T16:05:19.950Z,47.50
2018-03-04T16:07:48.427Z,47.70
2018-03-04T16:10:15.917Z,47.70
2018-03-04T16:12:43.369Z,47.10
2018-03-04T16:15:10.975Z,47.60
2018-03-04T16:17:39.201Z,47.90
2018-03-04T16:20:06.661Z,47.80
2018-03-04T16:22:34.259Z,48.10
2018-03-04T16:25:01.736Z,48.40
2018-03-04T16:27:29.966Z,48.40
2018-03-04T16:29:57.587Z,48.40
2018-03-04T16:32:25.042Z,48.40
2018-03-04T16:34:52.496Z,48.60
2018-03-04T16:37:20.712Z,49.00
2018-03-04T16:39:48.171Z,48.90
2018-03-04T16:42:15.623Z,49.10
2018-03-04T16:44:43.083Z,61.90
2018-03-04T16:47:10.549Z,49.10
2018-03-04T16:49:38.025Z,49.60
2018-03-04T16:52:05.901Z,50.00
2018-03-04T16:54:34.116Z,51.00
2018-03-04T16:57:02.337Z,51.50
2018-03-04T16:59:29.805Z,52.00
2018-03-04T17:01:58.041Z,52.70
2018-03-04T17:04:25.492Z,52.60
2018-03-04T17:06:52.954Z,53.10
2018-03-04T17:09:20.412Z,53.30
2018-03-04T17:11:47.857Z,53.50
2018-03-04T17:14:15.426Z,53.40
2018-03-04T17:16:42.931Z,53.60
2018-03-04T17:19:10.514Z,53.70
2018-03-04T17:21:37.979Z,53.90
2018-03-04T17:24:05.441Z,54.20
2018-03-04T17:26:32.906Z,54.30
2018-03-04T17:29:00.370Z,54.30
2018-03-04T17:31:27.838Z,54.60
2018-03-04T17:33:55.295Z,54.60
2018-03-04T17:36:22.749Z,54.70
2018-03-04T17:38:50.204Z,54.60
2018-03-04T17:41:17.661Z,54.60
2018-03-04T17:43:45.120Z,54.80
2018-03-04T17:46:12.585Z,55.20
2018-03-04T17:48:40.038Z,57.50
2018-03-04T17:51:07.489Z,57.20
2018-03-04T17:53:35.347Z,55.50
2018-03-04T17:56:03.214Z,55.60
2018-03-04T17:58:31.437Z,55.70
2018-03-04T18:00:59.680Z,56.20
2018-03-04T18:03:27.129Z,56.20
2018-03-04T18:05:54.589Z,56.20
2018-03-04T18:08:22.050Z,56.40
2018-03-04T18:10:49.581Z,56.40
2018-03-04T18:13:17.055Z,56.50
2018-03-04T18:15:44.509Z,56.80
2018-03-04T18:18:11.967Z,56.60
2018-03-04T18:20:39.421Z,56.80
2018-03-04T18:23:06.887Z,56.90
2018-03-04T18:25:34.342Z,57.00
2018-03-04T18:28:01.801Z,57.00
2018-03-04T18:30:29.249Z,56.90
2018-03-04T18:32:56.705Z,57.00
2018-03-04T18:35:24.168Z,57.10
2018-03-04T18:37:51.639Z,57.70
2018-03-04T18:40:19.099Z,57.20
2018-03-04T18:42:46.559Z,57.50
2018-03-04T18:45:14.069Z,57.30
2018-03-04T18:47:41.639Z,57.70
2018-03-04T18:50:09.151Z,59.60
2018-03-04T18:52:36.690Z,57.60
2018-03-04T18:55:05.014Z,58.00
2018-03-04T18:57:32.543Z,57.60
2018-03-04T19:00:00.062Z,58.70
2018-03-04T19:02:27.641Z,62.40
2018-03-04T19:04:55.979Z,58.80
2018-03-04T19:07:24.243Z,58.90
2018-03-04T19:09:51.709Z,58.80
2018-03-04T19:12:19.167Z,59.50
2018-03-04T19:14:46.632Z,59.80
2018-03-04T19:17:14.087Z,60.30
2018-03-04T19:19:41.565Z,59.70
2018-03-04T19:22:09.033Z,59.30
2018-03-04T19:24:36.503Z,59.50
2018-03-04T19:27:03.970Z,59.80
2018-03-04T19:29:32.213Z,59.80
2018-03-04T19:31:59.689Z,59.70
2018-03-04T19:34:27.929Z,59.90
2018-03-04T19:36:55.639Z,59.80
2018-03-04T19:39:23.125Z,59.50
2018-03-04T19:41:50.596Z,59.50
2018-03-04T19:44:18.119Z,59.80
2018-03-04T19:46:45.654Z,60.00
2018-03-04T19:49:14.021Z,60.20
2018-03-04T19:51:41.585Z,59.30
2018-03-04T19:54:09.129Z,59.50
2018-03-04T19:56:36.664Z,59.10
2018-03-04T19:59:04.563Z,58.90
2018-03-04T20:01:32.112Z,62.80
2018-03-04T20:03:59.676Z,59.50
2018-03-04T20:06:27.187Z,59.60
2018-03-04T20:08:54.717Z,59.60
2018-03-04T20:11:23.024Z,60.00
2018-03-04T20:13:50.550Z,60.00
2018-03-04T20:16:18.870Z,61.10
2018-03-04T20:18:46.395Z,61.00
2018-03-04T20:21:14.011Z,61.40
2018-03-04T20:23:42.308Z,61.90
2018-03-04T20:26:09.782Z,61.80
2018-03-04T20:28:38.000Z,62.00
2018-03-04T20:31:05.505Z,62.00
2018-03-04T20:33:32.954Z,62.60
2018-03-04T20:36:00.409Z,63.40
2018-03-04T20:38:27.875Z,63.50
2018-03-04T20:40:55.846Z,63.70
2018-03-04T20:43:23.306Z,63.90
2018-03-04T20:45:51.530Z,63.40
2018-03-04T20:48:19.015Z,63.20
2018-03-04T20:50:46.479Z,63.10
2018-03-04T20:53:13.940Z,63.80
2018-03-04T20:55:41.385Z,78.60
2018-03-04T20:58:08.841Z,64.20
2018-03-04T21:00:36.298Z,64.50
2018-03-04T21:03:03.741Z,79.00
2018-03-04T21:05:31.193Z,65.80
2018-03-04T21:07:58.645Z,66.10
2018-03-04T21:10:26.094Z,65.70
2018-03-04T21:12:53.550Z,65.90
2018-03-04T21:15:21.003Z,65.70
2018-03-04T21:17:48.465Z,65.30
2018-03-04T21:20:15.916Z,65.30
2018-03-04T21:22:43.391Z,65.70
2018-03-04T21:25:10.845Z,66.40
2018-03-04T21:27:38.297Z,66.30
2018-03-04T21:30:05.759Z,66.10
2018-03-04T21:32:33.206Z,66.00
2018-03-04T21:35:00.666Z,65.90
2018-03-04T21:37:28.115Z,66.50
2018-03-04T21:39:55.573Z,67.10
2018-03-04T21:42:23.031Z,67.50
2018-03-04T21:44:50.506Z,67.40
2018-03-04T21:47:17.948Z,66.80
2018-03-04T21:49:45.809Z,66.90
2018-03-04T21:52:13.272Z,66.10
2018-03-04T21:54:40.725Z,66.00
2018-03-04T21:57:08.182Z,65.40
2018-03-04T21:59:35.651Z,65.20
2018-03-04T22:02:03.107Z,67.50
2018-03-04T22:04:30.557Z,80.60
2018-03-04T22:06:58.012Z,67.70
2018-03-04T22:09:25.459Z,67.90
2018-03-04T22:11:52.943Z,68.00
2018-03-04T22:14:20.377Z,67.80
2018-03-04T22:16:47.837Z,67.80
2018-03-04T22:19:15.288Z,68.10
2018-03-04T22:21:42.754Z,67.50
2018-03-04T22:24:10.206Z,68.50
2018-03-04T22:26:37.658Z,68.40
2018-03-04T22:29:05.121Z,68.50
2018-03-04T22:31:33.041Z,68.80
2018-03-04T22:34:01.291Z,69.20
2018-03-04T22:36:28.745Z,69.00
2018-03-04T22:38:56.193Z,69.10
2018-03-04T22:41:23.657Z,69.30
2018-03-04T22:43:51.115Z,70.60
2018-03-04T22:46:18.564Z,69.50
2018-03-04T22:48:46.030Z,69.70
2018-03-04T22:51:13.478Z,68.60
2018-03-04T22:53:40.928Z,71.20
2018-03-04T22:56:08.377Z,68.00
2018-03-04T22:58:35.849Z,68.30
2018-03-04T23:01:03.704Z,68.30
2018-03-04T23:03:31.566Z,68.40
2018-03-04T23:05:59.025Z,68.70
2018-03-04T23:08:26.477Z,69.20
2018-03-04T23:10:53.937Z,68.90
2018-03-04T23:13:21.405Z,68.80
2018-03-04T23:15:48.861Z,70.40
2018-03-04T23:18:16.331Z,74.50
2018-03-04T23:20:44.062Z,75.00
2018-03-04T23:23:11.525Z,75.20
2018-03-04T23:25:38.979Z,75.00
2018-03-04T23:28:06.435Z,74.60
2018-03-04T23:30:33.895Z,74.40
2018-03-04T23:33:01.354Z,73.90
2018-03-04T23:35:28.814Z,73.80
2018-03-04T23:37:56.270Z,73.30
2018-03-04T23:40:23.741Z,73.20
2018-03-04T23:42:51.203Z,72.90
2018-03-04T23:45:18.663Z,73.00
2018-03-04T23:47:46.110Z,73.30
2018-03-04T23:50:13.562Z,72.20
2018-03-04T23:52:41.018Z,71.70
2018-03-04T23:55:08.555Z,70.90
2018-03-04T23:57:36.018Z,70.30
